Kyokuho Maru No.15 — JI3715 — position and weather

sailwx.info

Track history (hours):
 
Tides and Currents Weather Stations Pressure Air Temp Water Temp Dewpoint Dewpoint Depression Visibility Wind Speed Wind Dir Waves Ship Positions

Kyokuho Maru No.15

Last reported at 2015-Apr-18 06:16 UTC. Time now 2015-Apr-19 15:46 UTC.
Position N 34°37' E 134°57'.

Length 63 m; draft 4.2 m.

Type: Tanker. MMSI: 431301714.

Date/timePositionNaut miles runAvg speedWind from/ knotsBaromVisibWave heightAir tempDewpointWater temp
2015-Apr-18 06:16N 34°37' E 134°57'5 7.6
2015-Apr-18 05:34N 34°36' E 135°03'1010.4
2015-Apr-18 04:34N 34°38' E 135°16'3 2.7
2015-Apr-18 03:33N 34°40' E 135°18'0 0.1
2015-Apr-18 02:33N 34°40' E 135°18'0 0.0
2015-Apr-18 01:33N 34°40' E 135°18'0 0.0
2015-Apr-18 00:33N 34°40' E 135°18'0 0.0
2015-Apr-17 23:33N 34°40' E 135°18'0 0.0
2015-Apr-17 22:33N 34°40' E 135°18'0 0.3
2015-Apr-17 21:34N 34°39' E 135°17'1 1.2
2015-Apr-17 20:32N 34°39' E 135°19'0 0.0
2015-Apr-17 19:25N 34°39' E 135°19'0 0.0
2015-Apr-17 18:31N 34°39' E 135°19'0 0.0
2015-Apr-17 17:25N 34°39' E 135°19'0 0.0
2015-Apr-17 16:31N 34°39' E 135°19'0 0.0
2015-Apr-17 15:31N 34°39' E 135°19'0 0.0
2015-Apr-17 14:31N 34°39' E 135°19'0 0.0
2015-Apr-17 13:31N 34°39' E 135°19'0 0.0
2015-Apr-17 12:31N 34°39' E 135°19'0 0.0
2015-Apr-17 11:31N 34°39' E 135°19'0 0.0
2015-Apr-17 10:19N 34°39' E 135°19'0 0.0
2015-Apr-17 09:31N 34°39' E 135°19'0 0.1
2015-Apr-17 08:31N 34°39' E 135°19'0 0.0
2015-Apr-17 07:31N 34°39' E 135°19'0 0.0
2015-Apr-17 06:31N 34°39' E 135°19'0 0.0
2015-Apr-17 05:31N 34°39' E 135°19'0 0.0
2015-Apr-17 04:31N 34°39' E 135°19'0 0.0
2015-Apr-17 03:25N 34°39' E 135°19'0 0.0
2015-Apr-17 02:25N 34°39' E 135°19'0 0.0
2015-Apr-17 01:25N 34°39' E 135°19'0 0.0
2015-Apr-17 00:25N 34°39' E 135°19'0 0.1
2015-Apr-16 23:31N 34°39' E 135°19'5 5.6
2015-Apr-16 22:33N 34°35' E 135°22'4 0.2
2015-Apr-16 05:32N 34°31' E 135°24'9 8.9
2015-Apr-16 04:33N 34°39' E 135°25'1 0.9
2015-Apr-16 03:33N 34°40' E 135°25'0 0.0
2015-Apr-16 02:33N 34°40' E 135°25'0 0.0
2015-Apr-16 01:33N 34°40' E 135°25'0 0.0
2015-Apr-16 00:33N 34°40' E 135°25'0 0.0
2015-Apr-15 23:32N 34°40' E 135°25'3 0.2
2015-Apr-15 02:32N 34°38' E 135°28'1111.2
2015-Apr-15 01:33N 34°41' E 135°15'1 1.0
2015-Apr-15 00:33N 34°42' E 135°15'0 0.0
2015-Apr-14 23:34N 34°42' E 135°15'1 1.4
2015-Apr-14 22:33N 34°41' E 135°15'4 4.0
2015-Apr-14 21:34N 34°37' E 135°17'0 0.0
2015-Apr-14 20:30N 34°37' E 135°17'0 0.0
2015-Apr-14 19:30N 34°37' E 135°17'0 0.0
2015-Apr-14 18:18N 34°37' E 135°17'0 0.1
2015-Apr-14 17:30N 34°37' E 135°16'1010.6
2015-Apr-14 16:33N 34°35' E 135°04'  
2015-Apr-09 06:33N 34°37' E 134°57'9 9.5
2015-Apr-09 05:33N 34°37' E 135°09'6 6.0
2015-Apr-09 04:33N 34°37' E 135°16'3 2.7
2015-Apr-09 03:33N 34°40' E 135°15'2 2.5
2015-Apr-09 02:33N 34°42' E 135°15'0 0.0
2015-Apr-09 01:34N 34°42' E 135°15'0 0.0
2015-Apr-09 00:33N 34°42' E 135°15'0 0.0
2015-Apr-08 23:34N 34°42' E 135°15'1 1.3
2015-Apr-08 22:33N 34°41' E 135°15'4 3.7
2015-Apr-08 21:29N 34°37' E 135°16'0 0.0
2015-Apr-08 20:34N 34°37' E 135°16'0 0.0
2015-Apr-08 19:33N 34°37' E 135°16'0 0.0
2015-Apr-08 18:33N 34°37' E 135°16'0 0.0
2015-Apr-08 17:33N 34°37' E 135°16'0 0.0
2015-Apr-08 16:33N 34°37' E 135°16'0 0.0
2015-Apr-08 15:33N 34°37' E 135°16'0 0.0
2015-Apr-08 14:33N 34°37' E 135°16'0 0.0
2015-Apr-08 13:33N 34°37' E 135°16'0 0.0
2015-Apr-08 12:32N 34°37' E 135°16'5 5.6
2015-Apr-08 11:33N 34°36' E 135°09'11 9.7
2015-Apr-08 10:27N 34°36' E 134°56'  
Track history (hours):
 
Tides and Currents Weather Stations Pressure Air Temp Water Temp Dewpoint Dewpoint Depression Visibility Wind Speed Wind Dir Waves Ship Positions

Kyokuho Maru No.15

Last reported at 2015-Apr-18 06:16 UTC. Time now 2015-Apr-19 15:46 UTC.
Position N 34°37' E 134°57'.

Length 63 m; draft 4.2 m.

Type: Tanker. MMSI: 431301714.

Date/timePositionNaut miles runAvg speedWind from/ knotsBaromVisibWave heightAir tempDewpointWater temp
2015-Apr-18 06:16N 34°37' E 134°57'5 7.6
2015-Apr-18 05:34N 34°36' E 135°03'1010.4
2015-Apr-18 04:34N 34°38' E 135°16'3 2.7
2015-Apr-18 03:33N 34°40' E 135°18'0 0.1
2015-Apr-18 02:33N 34°40' E 135°18'0 0.0
2015-Apr-18 01:33N 34°40' E 135°18'0 0.0
2015-Apr-18 00:33N 34°40' E 135°18'0 0.0
2015-Apr-17 23:33N 34°40' E 135°18'0 0.0
2015-Apr-17 22:33N 34°40' E 135°18'0 0.3
2015-Apr-17 21:34N 34°39' E 135°17'1 1.2
2015-Apr-17 20:32N 34°39' E 135°19'0 0.0
2015-Apr-17 19:25N 34°39' E 135°19'0 0.0
2015-Apr-17 18:31N 34°39' E 135°19'0 0.0
2015-Apr-17 17:25N 34°39' E 135°19'0 0.0
2015-Apr-17 16:31N 34°39' E 135°19'0 0.0
2015-Apr-17 15:31N 34°39' E 135°19'0 0.0
2015-Apr-17 14:31N 34°39' E 135°19'0 0.0
2015-Apr-17 13:31N 34°39' E 135°19'0 0.0
2015-Apr-17 12:31N 34°39' E 135°19'0 0.0
2015-Apr-17 11:31N 34°39' E 135°19'0 0.0
2015-Apr-17 10:19N 34°39' E 135°19'0 0.0
2015-Apr-17 09:31N 34°39' E 135°19'0 0.1
2015-Apr-17 08:31N 34°39' E 135°19'0 0.0
2015-Apr-17 07:31N 34°39' E 135°19'0 0.0
2015-Apr-17 06:31N 34°39' E 135°19'0 0.0
2015-Apr-17 05:31N 34°39' E 135°19'0 0.0
2015-Apr-17 04:31N 34°39' E 135°19'0 0.0
2015-Apr-17 03:25N 34°39' E 135°19'0 0.0
2015-Apr-17 02:25N 34°39' E 135°19'0 0.0
2015-Apr-17 01:25N 34°39' E 135°19'0 0.0
2015-Apr-17 00:25N 34°39' E 135°19'0 0.1
2015-Apr-16 23:31N 34°39' E 135°19'5 5.6
2015-Apr-16 22:33N 34°35' E 135°22'4 0.2
2015-Apr-16 05:32N 34°31' E 135°24'9 8.9
2015-Apr-16 04:33N 34°39' E 135°25'1 0.9
2015-Apr-16 03:33N 34°40' E 135°25'0 0.0
2015-Apr-16 02:33N 34°40' E 135°25'0 0.0
2015-Apr-16 01:33N 34°40' E 135°25'0 0.0
2015-Apr-16 00:33N 34°40' E 135°25'0 0.0
2015-Apr-15 23:32N 34°40' E 135°25'3 0.2
2015-Apr-15 02:32N 34°38' E 135°28'1111.2
2015-Apr-15 01:33N 34°41' E 135°15'1 1.0
2015-Apr-15 00:33N 34°42' E 135°15'0 0.0
2015-Apr-14 23:34N 34°42' E 135°15'1 1.4
2015-Apr-14 22:33N 34°41' E 135°15'4 4.0
2015-Apr-14 21:34N 34°37' E 135°17'0 0.0
2015-Apr-14 20:30N 34°37' E 135°17'0 0.0
2015-Apr-14 19:30N 34°37' E 135°17'0 0.0
2015-Apr-14 18:18N 34°37' E 135°17'0 0.1
2015-Apr-14 17:30N 34°37' E 135°16'1010.6
2015-Apr-14 16:33N 34°35' E 135°04'  
2015-Apr-09 06:33N 34°37' E 134°57'9 9.5
2015-Apr-09 05:33N 34°37' E 135°09'6 6.0
2015-Apr-09 04:33N 34°37' E 135°16'3 2.7
2015-Apr-09 03:33N 34°40' E 135°15'2 2.5
2015-Apr-09 02:33N 34°42' E 135°15'0 0.0
2015-Apr-09 01:34N 34°42' E 135°15'0 0.0
2015-Apr-09 00:33N 34°42' E 135°15'0 0.0
2015-Apr-08 23:34N 34°42' E 135°15'1 1.3
2015-Apr-08 22:33N 34°41' E 135°15'4 3.7
2015-Apr-08 21:29N 34°37' E 135°16'0 0.0
2015-Apr-08 20:34N 34°37' E 135°16'0 0.0
2015-Apr-08 19:33N 34°37' E 135°16'0 0.0
2015-Apr-08 18:33N 34°37' E 135°16'0 0.0
2015-Apr-08 17:33N 34°37' E 135°16'0 0.0
2015-Apr-08 16:33N 34°37' E 135°16'0 0.0
2015-Apr-08 15:33N 34°37' E 135°16'0 0.0
2015-Apr-08 14:33N 34°37' E 135°16'0 0.0
2015-Apr-08 13:33N 34°37' E 135°16'0 0.0
2015-Apr-08 12:32N 34°37' E 135°16'5 5.6
2015-Apr-08 11:33N 34°36' E 135°09'11 9.7
2015-Apr-08 10:27N 34°36' E 134°56'  

Dump ship's entire track history